map of KOEB home
KOEB - Airport
Location
City:  Coldwater, Michigan, United States
Name:Branch County Memorial Airport
ICAO:KOEB
FAA LID:OEB

Details
Type:Airport (Airfield)
Use:Public/Civil
Latitude:4156'01"N (41.933489)
Longitude:8503'08"W (-85.052307)
Datum:WGS 1984
Elevation:958 ft (292 m)
Variation:5.92W (WMM2015v2 magnetic declination)
-0.02 annual change
Runways:3
Longest:5350 × 75 ft (1631 × 23 m), paved

Time
Time Zone:UTC-5 (DST-4)
Local Time:

Weather
METAR:KOEB 041415Z AUTO 18009KT 10SM BKN050 BKN095 10/08 A2979 RMK AO2 T00970081

Related Locations
Nearby:
Farthest:YAUG: 11225 mi / 18065 km
Augusta [Augusta Airport], WA, AU

Find:

   beyond  
but within

Other Information
Maps:
NOTAMs:
Links:
Sources:

  
  • flag of United States
  • flag of Michigan
  

Sectional Chart

Flight Planning
at skyvector.com

Satellite Image

Google Maps Satellite view

 

Copyright © 2004-2019 Karl L. Swartz. All rights reserved.
The Great Circle Mapper name and logo are trademarks of the Great Circle Mapper.
All other trademarks mentioned herein belong to their respective owners.
Please see credits for attibutions and further copyright information.

  Follow gcmap on Facebook Follow gcmap on Twitter GCmap on LinkedIn

hCard Microformat

Geo Microformat